Wan Hai 273 — 9V7586 — position and weather

sailwx.info

Track history (hours):
 
Tides and Currents Weather Stations Pressure Air Temp Water Temp Dewpoint Dewpoint Depression Visibility Wind Speed Wind Dir Waves Ship Positions

Wan Hai 273

Last reported at 2015-Jan-29 10:06 UTC. Time now 2015-Jan-29 18:25 UTC.
Position N 22°07' E 114°22'.

Length 172 m; draft 8.8 m.

Type: Cargo ship. MMSI: 566406000.

Date/timePositionNaut miles runAvg speedWind from/ knotsBaromVisibWave heightAir tempDewpointWater temp
2015-Jan-29 10:06N 22°07' E 114°22'1214.2
2015-Jan-29 09:16N 22°12' E 114°11'7 9.4
2015-Jan-29 08:33N 22°17' E 114°06'1110.4
2015-Jan-29 07:30N 22°21' E 113°55'6 6.7
2015-Jan-29 06:33N 22°28' E 113°54'0 0.2
2015-Jan-29 05:32N 22°28' E 113°54'0 0.0
2015-Jan-29 04:32N 22°28' E 113°54'0 0.0
2015-Jan-29 03:32N 22°28' E 113°54'0 0.0
2015-Jan-29 02:29N 22°28' E 113°54'0 0.0
2015-Jan-29 01:32N 22°28' E 113°54'0 0.0
2015-Jan-29 00:29N 22°28' E 113°54'0 0.0
2015-Jan-28 23:29N 22°28' E 113°54'0 0.0
2015-Jan-28 22:32N 22°28' E 113°54'0 0.0
2015-Jan-28 21:29N 22°28' E 113°54'0 0.0
2015-Jan-28 20:29N 22°28' E 113°54'0 0.1
2015-Jan-28 19:33N 22°28' E 113°54'14 7.2
2015-Jan-28 17:33N 22°18' E 114°05'1 1.2
2015-Jan-28 16:33N 22°17' E 114°05'0 0.0
2015-Jan-28 15:33N 22°17' E 114°05'0 0.0
2015-Jan-28 14:33N 22°17' E 114°05'0 0.0
2015-Jan-28 13:33N 22°17' E 114°05'0 0.0
2015-Jan-28 12:33N 22°17' E 114°05'0 0.0
2015-Jan-28 11:30N 22°17' E 114°05'0 0.0
2015-Jan-28 10:33N 22°17' E 114°05'0 0.0
2015-Jan-28 09:33N 22°17' E 114°05'0 0.0
2015-Jan-28 08:33N 22°17' E 114°05'0 0.0
2015-Jan-28 07:33N 22°17' E 114°05'0 0.0
2015-Jan-28 06:33N 22°17' E 114°05'0 0.0
2015-Jan-28 05:33N 22°17' E 114°05'0 0.0
2015-Jan-28 04:33N 22°17' E 114°05'0 0.0
2015-Jan-28 03:33N 22°17' E 114°05'3 3.3
2015-Jan-28 02:33N 22°20' E 114°08'0 0.0
2015-Jan-28 01:33N 22°19' E 114°08'0 0.0
2015-Jan-28 00:33N 22°19' E 114°08'0 0.0
2015-Jan-27 23:30N 22°19' E 114°08'0 0.0
2015-Jan-27 22:33N 22°19' E 114°08'0 0.0
2015-Jan-27 21:30N 22°19' E 114°08'0 0.0
2015-Jan-27 20:30N 22°19' E 114°08'0 0.0
2015-Jan-27 19:33N 22°19' E 114°08'0 0.0
2015-Jan-27 18:30N 22°19' E 114°08'0 0.0
2015-Jan-27 17:33N 22°19' E 114°08'0 0.0
2015-Jan-27 16:30N 22°19' E 114°08'0 0.0
2015-Jan-27 15:33N 22°20' E 114°08'7 6.1
2015-Jan-27 14:27N 22°13' E 114°10'8 9.0
2015-Jan-27 13:33N 22°06' E 114°14'2 2.0
2015-Jan-27 12:31N 22°04' E 114°13'0 0.0
2015-Jan-27 11:25N 22°04' E 114°13'0 0.0
2015-Jan-27 10:22N 22°04' E 114°13'0 0.0
2015-Jan-27 09:31N 22°04' E 114°13'0 0.0
2015-Jan-27 04:10N 22°04' E 114°13'0 0.0
2015-Jan-27 03:25N 22°04' E 114°13'1113.3
2015-Jan-27 02:34N 21°58' E 114°03'  
Track history (hours):
 
Tides and Currents Weather Stations Pressure Air Temp Water Temp Dewpoint Dewpoint Depression Visibility Wind Speed Wind Dir Waves Ship Positions

Wan Hai 273

Last reported at 2015-Jan-29 10:06 UTC. Time now 2015-Jan-29 18:25 UTC.
Position N 22°07' E 114°22'.

Length 172 m; draft 8.8 m.

Type: Cargo ship. MMSI: 566406000.

Date/timePositionNaut miles runAvg speedWind from/ knotsBaromVisibWave heightAir tempDewpointWater temp
2015-Jan-29 10:06N 22°07' E 114°22'1214.2
2015-Jan-29 09:16N 22°12' E 114°11'7 9.4
2015-Jan-29 08:33N 22°17' E 114°06'1110.4
2015-Jan-29 07:30N 22°21' E 113°55'6 6.7
2015-Jan-29 06:33N 22°28' E 113°54'0 0.2
2015-Jan-29 05:32N 22°28' E 113°54'0 0.0
2015-Jan-29 04:32N 22°28' E 113°54'0 0.0
2015-Jan-29 03:32N 22°28' E 113°54'0 0.0
2015-Jan-29 02:29N 22°28' E 113°54'0 0.0
2015-Jan-29 01:32N 22°28' E 113°54'0 0.0
2015-Jan-29 00:29N 22°28' E 113°54'0 0.0
2015-Jan-28 23:29N 22°28' E 113°54'0 0.0
2015-Jan-28 22:32N 22°28' E 113°54'0 0.0
2015-Jan-28 21:29N 22°28' E 113°54'0 0.0
2015-Jan-28 20:29N 22°28' E 113°54'0 0.1
2015-Jan-28 19:33N 22°28' E 113°54'14 7.2
2015-Jan-28 17:33N 22°18' E 114°05'1 1.2
2015-Jan-28 16:33N 22°17' E 114°05'0 0.0
2015-Jan-28 15:33N 22°17' E 114°05'0 0.0
2015-Jan-28 14:33N 22°17' E 114°05'0 0.0
2015-Jan-28 13:33N 22°17' E 114°05'0 0.0
2015-Jan-28 12:33N 22°17' E 114°05'0 0.0
2015-Jan-28 11:30N 22°17' E 114°05'0 0.0
2015-Jan-28 10:33N 22°17' E 114°05'0 0.0
2015-Jan-28 09:33N 22°17' E 114°05'0 0.0
2015-Jan-28 08:33N 22°17' E 114°05'0 0.0
2015-Jan-28 07:33N 22°17' E 114°05'0 0.0
2015-Jan-28 06:33N 22°17' E 114°05'0 0.0
2015-Jan-28 05:33N 22°17' E 114°05'0 0.0
2015-Jan-28 04:33N 22°17' E 114°05'0 0.0
2015-Jan-28 03:33N 22°17' E 114°05'3 3.3
2015-Jan-28 02:33N 22°20' E 114°08'0 0.0
2015-Jan-28 01:33N 22°19' E 114°08'0 0.0
2015-Jan-28 00:33N 22°19' E 114°08'0 0.0
2015-Jan-27 23:30N 22°19' E 114°08'0 0.0
2015-Jan-27 22:33N 22°19' E 114°08'0 0.0
2015-Jan-27 21:30N 22°19' E 114°08'0 0.0
2015-Jan-27 20:30N 22°19' E 114°08'0 0.0
2015-Jan-27 19:33N 22°19' E 114°08'0 0.0
2015-Jan-27 18:30N 22°19' E 114°08'0 0.0
2015-Jan-27 17:33N 22°19' E 114°08'0 0.0
2015-Jan-27 16:30N 22°19' E 114°08'0 0.0
2015-Jan-27 15:33N 22°20' E 114°08'7 6.1
2015-Jan-27 14:27N 22°13' E 114°10'8 9.0
2015-Jan-27 13:33N 22°06' E 114°14'2 2.0
2015-Jan-27 12:31N 22°04' E 114°13'0 0.0
2015-Jan-27 11:25N 22°04' E 114°13'0 0.0
2015-Jan-27 10:22N 22°04' E 114°13'0 0.0
2015-Jan-27 09:31N 22°04' E 114°13'0 0.0
2015-Jan-27 04:10N 22°04' E 114°13'0 0.0
2015-Jan-27 03:25N 22°04' E 114°13'1113.3
2015-Jan-27 02:34N 21°58' E 114°03'  

Dump ship's entire track history